sensor_id;sensor_type;location;lat;lon;timestamp;P1;durP1;ratioP1;P2;durP2;ratioP2
24084;SDS011;12268;52.110;5.548;2023-05-07T00:02:17;43.33;;;15.43;;
24084;SDS011;12268;52.110;5.548;2023-05-07T00:04:43;30.58;;;12.88;;
24084;SDS011;12268;52.110;5.548;2023-05-07T00:07:09;57.67;;;18.02;;
24084;SDS011;12268;52.110;5.548;2023-05-07T00:09:34;28.63;;;12.70;;
24084;SDS011;12268;52.110;5.548;2023-05-07T00:12:00;19.27;;;11.10;;
24084;SDS011;12268;52.110;5.548;2023-05-07T00:14:26;28.15;;;12.32;;
24084;SDS011;12268;52.110;5.548;2023-05-07T00:16:51;25.45;;;12.20;;
24084;SDS011;12268;52.110;5.548;2023-05-07T00:19:17;20.85;;;11.07;;
24084;SDS011;12268;52.110;5.548;2023-05-07T00:21:42;19.35;;;11.35;;
24084;SDS011;12268;52.110;5.548;2023-05-07T00:24:08;13.80;;;9.80;;
24084;SDS011;12268;52.110;5.548;2023-05-07T00:26:33;13.75;;;9.68;;
24084;SDS011;12268;52.110;5.548;2023-05-07T00:28:59;17.08;;;10.85;;
24084;SDS011;12268;52.110;5.548;2023-05-07T00:31:24;15.90;;;9.80;;
24084;SDS011;12268;52.110;5.548;2023-05-07T00:33:50;17.17;;;9.55;;
24084;SDS011;12268;52.110;5.548;2023-05-07T00:36:15;15.27;;;10.23;;
24084;SDS011;12268;52.110;5.548;2023-05-07T00:38:41;18.40;;;10.57;;
24084;SDS011;12268;52.110;5.548;2023-05-07T00:41:06;17.02;;;10.18;;
24084;SDS011;12268;52.110;5.548;2023-05-07T00:43:32;17.02;;;10.60;;
24084;SDS011;12268;52.110;5.548;2023-05-07T00:45:58;16.00;;;10.10;;
24084;SDS011;12268;52.110;5.548;2023-05-07T00:48:23;15.38;;;10.30;;
24084;SDS011;12268;52.110;5.548;2023-05-07T00:50:50;17.30;;;10.80;;
24084;SDS011;12268;52.110;5.548;2023-05-07T00:53:16;21.08;;;11.35;;
24084;SDS011;12268;52.110;5.548;2023-05-07T00:55:41;15.07;;;10.98;;
24084;SDS011;12268;52.110;5.548;2023-05-07T00:58:07;28.70;;;12.55;;
24084;SDS011;12268;52.110;5.548;2023-05-07T01:00:33;25.17;;;13.35;;
24084;SDS011;12268;52.110;5.548;2023-05-07T01:02:59;38.80;;;16.50;;
24084;SDS011;12268;52.110;5.548;2023-05-07T01:05:24;57.55;;;21.33;;
24084;SDS011;12268;52.110;5.548;2023-05-07T01:07:53;47.15;;;18.58;;
24084;SDS011;12268;52.110;5.548;2023-05-07T01:10:20;25.70;;;13.52;;
24084;SDS011;12268;52.110;5.548;2023-05-07T01:12:45;45.72;;;19.67;;
24084;SDS011;12268;52.110;5.548;2023-05-07T01:15:12;26.50;;;14.38;;
24084;SDS011;12268;52.110;5.548;2023-05-07T01:17:38;25.67;;;14.25;;
24084;SDS011;12268;52.110;5.548;2023-05-07T01:20:05;25.95;;;14.13;;
24084;SDS011;12268;52.110;5.548;2023-05-07T01:22:32;33.90;;;15.80;;
24084;SDS011;12268;52.110;5.548;2023-05-07T01:24:59;32.03;;;15.90;;
24084;SDS011;12268;52.110;5.548;2023-05-07T01:27:26;25.02;;;13.48;;
24084;SDS011;12268;52.110;5.548;2023-05-07T01:29:52;28.98;;;14.95;;
24084;SDS011;12268;52.110;5.548;2023-05-07T01:32:18;24.13;;;13.63;;
24084;SDS011;12268;52.110;5.548;2023-05-07T01:34:47;28.40;;;15.18;;
24084;SDS011;12268;52.110;5.548;2023-05-07T01:37:14;28.15;;;15.23;;
24084;SDS011;12268;52.110;5.548;2023-05-07T01:39:40;24.05;;;14.50;;
24084;SDS011;12268;52.110;5.548;2023-05-07T01:42:07;23.23;;;14.45;;
24084;SDS011;12268;52.110;5.548;2023-05-07T01:44:32;23.67;;;14.50;;
24084;SDS011;12268;52.110;5.548;2023-05-07T01:46:58;27.17;;;15.88;;
24084;SDS011;12268;52.110;5.548;2023-05-07T01:49:24;21.83;;;14.77;;
24084;SDS011;12268;52.110;5.548;2023-05-07T01:51:50;24.45;;;14.40;;
24084;SDS011;12268;52.110;5.548;2023-05-07T01:54:16;22.13;;;13.60;;
24084;SDS011;12268;52.110;5.548;2023-05-07T01:56:42;22.35;;;14.10;;
24084;SDS011;12268;52.110;5.548;2023-05-07T01:59:07;20.65;;;14.25;;
24084;SDS011;12268;52.110;5.548;2023-05-07T02:01:33;23.48;;;14.27;;
24084;SDS011;12268;52.110;5.548;2023-05-07T02:03:58;21.33;;;13.95;;
24084;SDS011;12268;52.110;5.548;2023-05-07T02:06:24;21.65;;;14.18;;
24084;SDS011;12268;52.110;5.548;2023-05-07T02:08:49;20.48;;;14.18;;
24084;SDS011;12268;52.110;5.548;2023-05-07T02:11:15;22.48;;;13.60;;
24084;SDS011;12268;52.110;5.548;2023-05-07T02:13:41;25.50;;;18.17;;
24084;SDS011;12268;52.110;5.548;2023-05-07T02:16:06;28.55;;;21.83;;
24084;SDS011;12268;52.110;5.548;2023-05-07T02:18:32;24.52;;;19.58;;
24084;SDS011;12268;52.110;5.548;2023-05-07T02:20:58;24.63;;;16.95;;
24084;SDS011;12268;52.110;5.548;2023-05-07T02:23:23;23.60;;;16.98;;
24084;SDS011;12268;52.110;5.548;2023-05-07T02:25:49;18.23;;;13.70;;
24084;SDS011;12268;52.110;5.548;2023-05-07T02:28:15;19.33;;;12.13;;
24084;SDS011;12268;52.110;5.548;2023-05-07T02:30:40;17.05;;;11.63;;
24084;SDS011;12268;52.110;5.548;2023-05-07T02:33:06;15.50;;;11.48;;
24084;SDS011;12268;52.110;5.548;2023-05-07T02:35:33;18.27;;;12.25;;
24084;SDS011;12268;52.110;5.548;2023-05-07T02:37:58;16.95;;;12.32;;
24084;SDS011;12268;52.110;5.548;2023-05-07T02:40:24;18.42;;;12.15;;
24084;SDS011;12268;52.110;5.548;2023-05-07T02:42:49;20.77;;;12.18;;
24084;SDS011;12268;52.110;5.548;2023-05-07T02:45:15;20.58;;;12.20;;
24084;SDS011;12268;52.110;5.548;2023-05-07T02:47:41;17.15;;;12.05;;
24084;SDS011;12268;52.110;5.548;2023-05-07T02:50:06;17.73;;;12.20;;
24084;SDS011;12268;52.110;5.548;2023-05-07T02:52:32;17.45;;;11.68;;
24084;SDS011;12268;52.110;5.548;2023-05-07T02:54:58;18.73;;;13.25;;
24084;SDS011;12268;52.110;5.548;2023-05-07T02:57:23;15.55;;;12.07;;
24084;SDS011;12268;52.110;5.548;2023-05-07T02:59:49;16.33;;;11.93;;
24084;SDS011;12268;52.110;5.548;2023-05-07T03:02:15;19.70;;;14.25;;
24084;SDS011;12268;52.110;5.548;2023-05-07T03:04:41;19.35;;;12.90;;
24084;SDS011;12268;52.110;5.548;2023-05-07T03:07:07;22.23;;;13.10;;
24084;SDS011;12268;52.110;5.548;2023-05-07T03:09:32;22.23;;;12.65;;
24084;SDS011;12268;52.110;5.548;2023-05-07T03:11:58;17.23;;;12.55;;
24084;SDS011;12268;52.110;5.548;2023-05-07T03:14:23;18.42;;;13.07;;
24084;SDS011;12268;52.110;5.548;2023-05-07T03:16:49;19.08;;;12.85;;
24084;SDS011;12268;52.110;5.548;2023-05-07T03:19:15;19.52;;;12.80;;
24084;SDS011;12268;52.110;5.548;2023-05-07T03:21:41;20.13;;;13.85;;
24084;SDS011;12268;52.110;5.548;2023-05-07T03:24:06;22.48;;;13.82;;
24084;SDS011;12268;52.110;5.548;2023-05-07T03:26:32;19.65;;;14.40;;
24084;SDS011;12268;52.110;5.548;2023-05-07T03:28:57;20.05;;;14.50;;
24084;SDS011;12268;52.110;5.548;2023-05-07T03:31:23;20.75;;;15.20;;
24084;SDS011;12268;52.110;5.548;2023-05-07T03:33:51;24.67;;;15.63;;
24084;SDS011;12268;52.110;5.548;2023-05-07T03:36:21;22.45;;;15.30;;
24084;SDS011;12268;52.110;5.548;2023-05-07T03:38:48;22.92;;;16.33;;
24084;SDS011;12268;52.110;5.548;2023-05-07T03:41:14;23.45;;;15.40;;
24084;SDS011;12268;52.110;5.548;2023-05-07T03:43:39;24.73;;;17.00;;
24084;SDS011;12268;52.110;5.548;2023-05-07T03:46:05;25.20;;;17.10;;
24084;SDS011;12268;52.110;5.548;2023-05-07T03:48:31;23.98;;;16.38;;
24084;SDS011;12268;52.110;5.548;2023-05-07T03:50:59;22.20;;;15.80;;
24084;SDS011;12268;52.110;5.548;2023-05-07T03:53:25;27.42;;;16.27;;
24084;SDS011;12268;52.110;5.548;2023-05-07T03:55:50;22.92;;;15.32;;
24084;SDS011;12268;52.110;5.548;2023-05-07T03:58:16;22.38;;;15.68;;
24084;SDS011;12268;52.110;5.548;2023-05-07T04:00:41;23.30;;;16.17;;
24084;SDS011;12268;52.110;5.548;2023-05-07T04:03:07;24.50;;;16.27;;
24084;SDS011;12268;52.110;5.548;2023-05-07T04:05:33;23.23;;;15.60;;
24084;SDS011;12268;52.110;5.548;2023-05-07T04:07:59;24.98;;;16.08;;
24084;SDS011;12268;52.110;5.548;2023-05-07T04:10:25;26.58;;;17.40;;
24084;SDS011;12268;52.110;5.548;2023-05-07T04:12:51;25.92;;;16.40;;
24084;SDS011;12268;52.110;5.548;2023-05-07T04:15:17;23.27;;;16.40;;
24084;SDS011;12268;52.110;5.548;2023-05-07T04:17:42;24.23;;;16.42;;
24084;SDS011;12268;52.110;5.548;2023-05-07T04:20:08;29.02;;;16.25;;
24084;SDS011;12268;52.110;5.548;2023-05-07T04:22:35;21.73;;;15.57;;
24084;SDS011;12268;52.110;5.548;2023-05-07T04:25:01;25.85;;;16.70;;
24084;SDS011;12268;52.110;5.548;2023-05-07T04:27:27;31.52;;;19.05;;
24084;SDS011;12268;52.110;5.548;2023-05-07T04:29:53;24.95;;;16.70;;
24084;SDS011;12268;52.110;5.548;2023-05-07T04:32:20;24.90;;;16.25;;
24084;SDS011;12268;52.110;5.548;2023-05-07T04:34:46;25.48;;;16.15;;
24084;SDS011;12268;52.110;5.548;2023-05-07T04:37:12;21.80;;;15.48;;
24084;SDS011;12268;52.110;5.548;2023-05-07T04:39:37;25.55;;;15.88;;
24084;SDS011;12268;52.110;5.548;2023-05-07T04:42:03;19.88;;;13.90;;
24084;SDS011;12268;52.110;5.548;2023-05-07T04:44:28;19.15;;;13.60;;
24084;SDS011;12268;52.110;5.548;2023-05-07T04:46:56;18.75;;;14.10;;
24084;SDS011;12268;52.110;5.548;2023-05-07T04:49:21;20.17;;;13.20;;
24084;SDS011;12268;52.110;5.548;2023-05-07T04:51:47;20.08;;;14.38;;
24084;SDS011;12268;52.110;5.548;2023-05-07T04:54:12;21.95;;;15.60;;
24084;SDS011;12268;52.110;5.548;2023-05-07T04:56:38;21.98;;;15.23;;
24084;SDS011;12268;52.110;5.548;2023-05-07T04:59:04;24.33;;;14.77;;
24084;SDS011;12268;52.110;5.548;2023-05-07T05:01:30;22.23;;;14.82;;
24084;SDS011;12268;52.110;5.548;2023-05-07T05:03:56;21.63;;;14.50;;
24084;SDS011;12268;52.110;5.548;2023-05-07T05:06:21;19.75;;;14.38;;
24084;SDS011;12268;52.110;5.548;2023-05-07T05:08:47;20.25;;;13.95;;
24084;SDS011;12268;52.110;5.548;2023-05-07T05:11:12;22.92;;;15.25;;
24084;SDS011;12268;52.110;5.548;2023-05-07T05:13:38;22.17;;;15.13;;
24084;SDS011;12268;52.110;5.548;2023-05-07T05:16:03;21.73;;;15.82;;
24084;SDS011;12268;52.110;5.548;2023-05-07T05:18:29;19.60;;;14.10;;
24084;SDS011;12268;52.110;5.548;2023-05-07T05:20:55;19.05;;;15.13;;
24084;SDS011;12268;52.110;5.548;2023-05-07T05:23:20;22.98;;;15.00;;
24084;SDS011;12268;52.110;5.548;2023-05-07T05:25:46;24.00;;;15.65;;
24084;SDS011;12268;52.110;5.548;2023-05-07T05:28:11;27.00;;;16.77;;
24084;SDS011;12268;52.110;5.548;2023-05-07T05:30:37;26.15;;;16.35;;
24084;SDS011;12268;52.110;5.548;2023-05-07T05:33:03;25.02;;;16.67;;
24084;SDS011;12268;52.110;5.548;2023-05-07T05:35:29;20.42;;;15.60;;
24084;SDS011;12268;52.110;5.548;2023-05-07T05:37:55;23.00;;;16.35;;
24084;SDS011;12268;52.110;5.548;2023-05-07T05:40:20;20.58;;;15.65;;
24084;SDS011;12268;52.110;5.548;2023-05-07T05:42:46;22.27;;;16.02;;
24084;SDS011;12268;52.110;5.548;2023-05-07T05:45:11;24.90;;;16.95;;
24084;SDS011;12268;52.110;5.548;2023-05-07T05:47:37;23.33;;;16.95;;
24084;SDS011;12268;52.110;5.548;2023-05-07T05:50:02;23.63;;;15.88;;
24084;SDS011;12268;52.110;5.548;2023-05-07T05:52:29;24.30;;;16.58;;
24084;SDS011;12268;52.110;5.548;2023-05-07T05:54:55;22.65;;;16.55;;
24084;SDS011;12268;52.110;5.548;2023-05-07T05:57:20;25.00;;;15.85;;
24084;SDS011;12268;52.110;5.548;2023-05-07T05:59:46;22.45;;;17.95;;
24084;SDS011;12268;52.110;5.548;2023-05-07T06:02:12;25.60;;;18.08;;
24084;SDS011;12268;52.110;5.548;2023-05-07T06:04:37;25.38;;;17.13;;
24084;SDS011;12268;52.110;5.548;2023-05-07T06:07:03;22.73;;;16.98;;
24084;SDS011;12268;52.110;5.548;2023-05-07T06:09:28;25.33;;;16.92;;
24084;SDS011;12268;52.110;5.548;2023-05-07T06:11:54;25.75;;;17.95;;
24084;SDS011;12268;52.110;5.548;2023-05-07T06:14:19;21.85;;;17.27;;
24084;SDS011;12268;52.110;5.548;2023-05-07T06:16:45;25.00;;;17.13;;
24084;SDS011;12268;52.110;5.548;2023-05-07T06:19:10;25.15;;;17.10;;
24084;SDS011;12268;52.110;5.548;2023-05-07T06:21:36;22.45;;;17.52;;
24084;SDS011;12268;52.110;5.548;2023-05-07T06:24:01;20.88;;;15.60;;
24084;SDS011;12268;52.110;5.548;2023-05-07T06:26:27;21.48;;;16.55;;
24084;SDS011;12268;52.110;5.548;2023-05-07T06:28:53;21.60;;;16.67;;
24084;SDS011;12268;52.110;5.548;2023-05-07T06:31:19;21.17;;;16.95;;
24084;SDS011;12268;52.110;5.548;2023-05-07T06:33:48;22.27;;;16.20;;
24084;SDS011;12268;52.110;5.548;2023-05-07T06:36:14;22.67;;;17.13;;
24084;SDS011;12268;52.110;5.548;2023-05-07T06:38:39;23.67;;;17.45;;
24084;SDS011;12268;52.110;5.548;2023-05-07T06:41:05;23.15;;;15.85;;
24084;SDS011;12268;52.110;5.548;2023-05-07T06:43:32;21.98;;;16.90;;
24084;SDS011;12268;52.110;5.548;2023-05-07T06:45:57;23.17;;;17.58;;
24084;SDS011;12268;52.110;5.548;2023-05-07T06:48:23;20.70;;;16.08;;
24084;SDS011;12268;52.110;5.548;2023-05-07T06:50:49;23.95;;;16.30;;
24084;SDS011;12268;52.110;5.548;2023-05-07T06:53:14;24.13;;;16.25;;
24084;SDS011;12268;52.110;5.548;2023-05-07T06:55:40;21.50;;;16.15;;
24084;SDS011;12268;52.110;5.548;2023-05-07T06:58:06;21.90;;;16.90;;
24084;SDS011;12268;52.110;5.548;2023-05-07T07:00:32;22.08;;;17.35;;
24084;SDS011;12268;52.110;5.548;2023-05-07T07:02:58;21.45;;;17.08;;
24084;SDS011;12268;52.110;5.548;2023-05-07T07:05:25;23.33;;;18.10;;
24084;SDS011;12268;52.110;5.548;2023-05-07T07:07:51;21.48;;;16.98;;
24084;SDS011;12268;52.110;5.548;2023-05-07T07:10:19;23.38;;;17.02;;
24084;SDS011;12268;52.110;5.548;2023-05-07T07:12:45;23.73;;;17.38;;
24084;SDS011;12268;52.110;5.548;2023-05-07T07:15:11;21.95;;;17.23;;
24084;SDS011;12268;52.110;5.548;2023-05-07T07:17:38;23.45;;;17.20;;
24084;SDS011;12268;52.110;5.548;2023-05-07T07:20:03;20.08;;;16.15;;
24084;SDS011;12268;52.110;5.548;2023-05-07T07:22:30;23.67;;;16.27;;
24084;SDS011;12268;52.110;5.548;2023-05-07T07:24:55;21.25;;;16.73;;
24084;SDS011;12268;52.110;5.548;2023-05-07T07:27:21;22.02;;;16.33;;
24084;SDS011;12268;52.110;5.548;2023-05-07T07:29:47;21.60;;;16.17;;
24084;SDS011;12268;52.110;5.548;2023-05-07T07:32:12;19.85;;;15.38;;
24084;SDS011;12268;52.110;5.548;2023-05-07T07:34:38;19.33;;;15.75;;
24084;SDS011;12268;52.110;5.548;2023-05-07T07:37:03;19.70;;;15.73;;
24084;SDS011;12268;52.110;5.548;2023-05-07T07:39:31;21.23;;;17.13;;
24084;SDS011;12268;52.110;5.548;2023-05-07T07:41:57;24.55;;;17.55;;
24084;SDS011;12268;52.110;5.548;2023-05-07T07:44:23;21.98;;;16.60;;
24084;SDS011;12268;52.110;5.548;2023-05-07T07:46:49;23.92;;;16.73;;
24084;SDS011;12268;52.110;5.548;2023-05-07T07:49:15;23.63;;;17.40;;
24084;SDS011;12268;52.110;5.548;2023-05-07T07:51:41;25.40;;;18.58;;
24084;SDS011;12268;52.110;5.548;2023-05-07T07:54:06;20.42;;;16.38;;
24084;SDS011;12268;52.110;5.548;2023-05-07T07:56:32;23.40;;;19.02;;
24084;SDS011;12268;52.110;5.548;2023-05-07T07:58:58;22.38;;;17.50;;
24084;SDS011;12268;52.110;5.548;2023-05-07T08:01:24;21.90;;;17.95;;
24084;SDS011;12268;52.110;5.548;2023-05-07T08:03:51;21.40;;;17.25;;
24084;SDS011;12268;52.110;5.548;2023-05-07T08:06:16;22.92;;;18.33;;
24084;SDS011;12268;52.110;5.548;2023-05-07T08:08:42;22.75;;;19.00;;
24084;SDS011;12268;52.110;5.548;2023-05-07T08:11:08;21.70;;;17.67;;
24084;SDS011;12268;52.110;5.548;2023-05-07T08:13:33;25.25;;;19.05;;
24084;SDS011;12268;52.110;5.548;2023-05-07T08:15:59;23.33;;;17.50;;
24084;SDS011;12268;52.110;5.548;2023-05-07T08:18:25;25.38;;;18.48;;
24084;SDS011;12268;52.110;5.548;2023-05-07T08:20:53;23.38;;;16.98;;
24084;SDS011;12268;52.110;5.548;2023-05-07T08:23:18;25.55;;;19.20;;
24084;SDS011;12268;52.110;5.548;2023-05-07T08:25:44;25.67;;;19.08;;
24084;SDS011;12268;52.110;5.548;2023-05-07T08:28:09;22.42;;;17.70;;
24084;SDS011;12268;52.110;5.548;2023-05-07T08:30:35;27.15;;;20.85;;
24084;SDS011;12268;52.110;5.548;2023-05-07T08:33:00;22.40;;;17.85;;
24084;SDS011;12268;52.110;5.548;2023-05-07T08:35:26;25.05;;;18.50;;
24084;SDS011;12268;52.110;5.548;2023-05-07T08:37:52;24.58;;;18.60;;
24084;SDS011;12268;52.110;5.548;2023-05-07T08:40:18;27.73;;;20.80;;
24084;SDS011;12268;52.110;5.548;2023-05-07T08:42:44;30.70;;;21.60;;
24084;SDS011;12268;52.110;5.548;2023-05-07T08:58:47;33.55;;;22.60;;
24084;SDS011;12268;52.110;5.548;2023-05-07T09:01:13;28.65;;;20.92;;
24084;SDS011;12268;52.110;5.548;2023-05-07T09:03:41;28.98;;;21.17;;
24084;SDS011;12268;52.110;5.548;2023-05-07T09:06:09;30.45;;;21.38;;
24084;SDS011;12268;52.110;5.548;2023-05-07T09:08:35;30.20;;;21.83;;
24084;SDS011;12268;52.110;5.548;2023-05-07T09:11:01;28.35;;;22.35;;
24084;SDS011;12268;52.110;5.548;2023-05-07T09:13:27;30.45;;;23.00;;
24084;SDS011;12268;52.110;5.548;2023-05-07T09:15:53;27.35;;;20.80;;
24084;SDS011;12268;52.110;5.548;2023-05-07T11:27:47;18.20;;;15.18;;
24084;SDS011;12268;52.110;5.548;2023-05-07T11:30:16;25.38;;;18.80;;
24084;SDS011;12268;52.110;5.548;2023-05-07T11:32:47;21.30;;;17.52;;
24084;SDS011;12268;52.110;5.548;2023-05-07T11:35:13;22.23;;;17.65;;
24084;SDS011;12268;52.110;5.548;2023-05-07T11:37:40;23.02;;;18.25;;
24084;SDS011;12268;52.110;5.548;2023-05-07T11:42:44;22.50;;;17.52;;
24084;SDS011;12268;52.110;5.548;2023-05-07T11:45:10;23.42;;;17.70;;
24084;SDS011;12268;52.110;5.548;2023-05-07T11:47:35;21.50;;;16.73;;
24084;SDS011;12268;52.110;5.548;2023-05-07T11:50:05;21.65;;;16.95;;
24084;SDS011;12268;52.110;5.548;2023-05-07T11:52:32;21.40;;;17.02;;
24084;SDS011;12268;52.110;5.548;2023-05-07T11:54:59;24.75;;;18.75;;
24084;SDS011;12268;52.110;5.548;2023-05-07T11:57:26;21.95;;;17.38;;
24084;SDS011;12268;52.110;5.548;2023-05-07T11:59:52;24.00;;;17.52;;
24084;SDS011;12268;52.110;5.548;2023-05-07T12:02:18;21.10;;;17.33;;
24084;SDS011;12268;52.110;5.548;2023-05-07T12:04:44;20.60;;;16.58;;
24084;SDS011;12268;52.110;5.548;2023-05-07T12:07:16;19.80;;;14.63;;
24084;SDS011;12268;52.110;5.548;2023-05-07T12:09:43;20.75;;;16.35;;
24084;SDS011;12268;52.110;5.548;2023-05-07T12:12:10;19.85;;;15.18;;
24084;SDS011;12268;52.110;5.548;2023-05-07T12:14:40;19.02;;;15.57;;
24084;SDS011;12268;52.110;5.548;2023-05-07T12:17:09;18.35;;;15.70;;
24084;SDS011;12268;52.110;5.548;2023-05-07T12:19:39;20.17;;;16.60;;
24084;SDS011;12268;52.110;5.548;2023-05-07T12:22:10;18.48;;;15.52;;
24084;SDS011;12268;52.110;5.548;2023-05-07T12:24:45;18.73;;;14.50;;
24084;SDS011;12268;52.110;5.548;2023-05-07T12:27:12;20.48;;;16.65;;
24084;SDS011;12268;52.110;5.548;2023-05-07T12:29:38;18.75;;;16.40;;
24084;SDS011;12268;52.110;5.548;2023-05-07T12:32:06;20.45;;;15.82;;
24084;SDS011;12268;52.110;5.548;2023-05-07T12:34:32;20.50;;;16.50;;
24084;SDS011;12268;52.110;5.548;2023-05-07T12:36:57;23.58;;;18.30;;
24084;SDS011;12268;52.110;5.548;2023-05-07T12:39:27;21.50;;;17.13;;
24084;SDS011;12268;52.110;5.548;2023-05-07T12:41:53;25.80;;;19.38;;
24084;SDS011;12268;52.110;5.548;2023-05-07T12:44:21;19.75;;;16.75;;
24084;SDS011;12268;52.110;5.548;2023-05-07T12:46:48;19.63;;;17.52;;
24084;SDS011;12268;52.110;5.548;2023-05-07T12:49:14;22.38;;;19.15;;
24084;SDS011;12268;52.110;5.548;2023-05-07T12:51:40;23.00;;;19.95;;
24084;SDS011;12268;52.110;5.548;2023-05-07T12:54:05;22.92;;;18.52;;
24084;SDS011;12268;52.110;5.548;2023-05-07T12:56:31;22.50;;;17.98;;
24084;SDS011;12268;52.110;5.548;2023-05-07T12:58:57;24.17;;;19.25;;
24084;SDS011;12268;52.110;5.548;2023-05-07T13:01:28;22.10;;;19.23;;
24084;SDS011;12268;52.110;5.548;2023-05-07T13:03:55;23.02;;;18.05;;
24084;SDS011;12268;52.110;5.548;2023-05-07T13:06:20;23.35;;;17.83;;
24084;SDS011;12268;52.110;5.548;2023-05-07T13:08:46;23.17;;;17.58;;
24084;SDS011;12268;52.110;5.548;2023-05-07T13:11:12;19.92;;;15.85;;
24084;SDS011;12268;52.110;5.548;2023-05-07T13:13:38;20.58;;;17.65;;
24084;SDS011;12268;52.110;5.548;2023-05-07T13:16:07;23.63;;;17.98;;
24084;SDS011;12268;52.110;5.548;2023-05-07T13:18:33;23.23;;;17.77;;
24084;SDS011;12268;52.110;5.548;2023-05-07T13:20:59;23.33;;;17.92;;
24084;SDS011;12268;52.110;5.548;2023-05-07T13:23:26;22.63;;;18.52;;
24084;SDS011;12268;52.110;5.548;2023-05-07T13:25:52;24.95;;;19.02;;
24084;SDS011;12268;52.110;5.548;2023-05-07T13:28:21;22.33;;;18.35;;
24084;SDS011;12268;52.110;5.548;2023-05-07T13:30:48;23.85;;;18.70;;
24084;SDS011;12268;52.110;5.548;2023-05-07T13:33:14;22.52;;;18.35;;
24084;SDS011;12268;52.110;5.548;2023-05-07T13:35:41;23.25;;;17.25;;
24084;SDS011;12268;52.110;5.548;2023-05-07T13:38:06;24.98;;;16.95;;
24084;SDS011;12268;52.110;5.548;2023-05-07T13:40:33;23.05;;;17.40;;
24084;SDS011;12268;52.110;5.548;2023-05-07T13:42:58;22.42;;;17.55;;
24084;SDS011;12268;52.110;5.548;2023-05-07T13:45:26;19.48;;;16.50;;
24084;SDS011;12268;52.110;5.548;2023-05-07T13:47:54;22.02;;;15.65;;
24084;SDS011;12268;52.110;5.548;2023-05-07T13:50:20;24.35;;;16.95;;
24084;SDS011;12268;52.110;5.548;2023-05-07T13:52:45;18.83;;;14.30;;
24084;SDS011;12268;52.110;5.548;2023-05-07T13:55:15;18.63;;;14.52;;
24084;SDS011;12268;52.110;5.548;2023-05-07T13:57:56;20.50;;;14.38;;
24084;SDS011;12268;52.110;5.548;2023-05-07T14:00:24;20.30;;;15.02;;
24084;SDS011;12268;52.110;5.548;2023-05-07T14:02:50;19.85;;;14.93;;
24084;SDS011;12268;52.110;5.548;2023-05-07T14:05:15;21.50;;;15.38;;
24084;SDS011;12268;52.110;5.548;2023-05-07T14:07:41;22.27;;;15.25;;
24084;SDS011;12268;52.110;5.548;2023-05-07T14:10:07;19.38;;;14.68;;
24084;SDS011;12268;52.110;5.548;2023-05-07T14:12:32;22.33;;;15.63;;
24084;SDS011;12268;52.110;5.548;2023-05-07T14:14:58;21.55;;;16.25;;
24084;SDS011;12268;52.110;5.548;2023-05-07T14:17:24;20.75;;;15.77;;
24084;SDS011;12268;52.110;5.548;2023-05-07T14:19:51;20.30;;;15.65;;
24084;SDS011;12268;52.110;5.548;2023-05-07T14:22:21;21.77;;;16.15;;
24084;SDS011;12268;52.110;5.548;2023-05-07T14:24:50;20.45;;;15.60;;
24084;SDS011;12268;52.110;5.548;2023-05-07T14:27:15;23.05;;;15.35;;
24084;SDS011;12268;52.110;5.548;2023-05-07T14:29:41;19.55;;;15.15;;
24084;SDS011;12268;52.110;5.548;2023-05-07T14:32:08;19.90;;;15.73;;
24084;SDS011;12268;52.110;5.548;2023-05-07T14:34:33;22.55;;;15.10;;
24084;SDS011;12268;52.110;5.548;2023-05-07T14:36:59;18.92;;;14.85;;
24084;SDS011;12268;52.110;5.548;2023-05-07T14:39:25;22.30;;;16.08;;
24084;SDS011;12268;52.110;5.548;2023-05-07T14:41:51;23.35;;;16.20;;
24084;SDS011;12268;52.110;5.548;2023-05-07T14:44:16;23.48;;;16.77;;
24084;SDS011;12268;52.110;5.548;2023-05-07T14:46:42;26.10;;;18.60;;
24084;SDS011;12268;52.110;5.548;2023-05-07T14:49:08;31.38;;;18.70;;
24084;SDS011;12268;52.110;5.548;2023-05-07T14:51:41;25.05;;;17.83;;
24084;SDS011;12268;52.110;5.548;2023-05-07T14:54:08;26.75;;;18.55;;
24084;SDS011;12268;52.110;5.548;2023-05-07T14:56:34;31.30;;;19.67;;
24084;SDS011;12268;52.110;5.548;2023-05-07T14:59:00;30.50;;;20.50;;
24084;SDS011;12268;52.110;5.548;2023-05-07T15:01:27;42.70;;;23.27;;
24084;SDS011;12268;52.110;5.548;2023-05-07T15:03:53;45.80;;;21.48;;
24084;SDS011;12268;52.110;5.548;2023-05-07T15:06:19;42.40;;;22.58;;
24084;SDS011;12268;52.110;5.548;2023-05-07T15:08:44;42.97;;;22.17;;
24084;SDS011;12268;52.110;5.548;2023-05-07T15:11:10;39.67;;;22.00;;
24084;SDS011;12268;52.110;5.548;2023-05-07T15:13:36;31.05;;;20.75;;
24084;SDS011;12268;52.110;5.548;2023-05-07T15:16:01;27.58;;;20.38;;
24084;SDS011;12268;52.110;5.548;2023-05-07T15:18:27;28.00;;;20.55;;
24084;SDS011;12268;52.110;5.548;2023-05-07T15:20:52;31.50;;;21.92;;
24084;SDS011;12268;52.110;5.548;2023-05-07T15:23:18;36.95;;;23.67;;
24084;SDS011;12268;52.110;5.548;2023-05-07T15:25:43;40.40;;;23.88;;
24084;SDS011;12268;52.110;5.548;2023-05-07T15:28:09;34.33;;;23.98;;
24084;SDS011;12268;52.110;5.548;2023-05-07T15:30:35;31.92;;;21.20;;
24084;SDS011;12268;52.110;5.548;2023-05-07T15:33:01;34.10;;;23.08;;
24084;SDS011;12268;52.110;5.548;2023-05-07T15:35:27;37.85;;;23.20;;
24084;SDS011;12268;52.110;5.548;2023-05-07T15:37:53;35.25;;;23.42;;
24084;SDS011;12268;52.110;5.548;2023-05-07T15:40:18;36.45;;;25.48;;
24084;SDS011;12268;52.110;5.548;2023-05-07T15:42:44;39.75;;;26.75;;
24084;SDS011;12268;52.110;5.548;2023-05-07T15:45:11;37.55;;;26.08;;
24084;SDS011;12268;52.110;5.548;2023-05-07T15:47:36;38.72;;;25.45;;
24084;SDS011;12268;52.110;5.548;2023-05-07T15:50:02;35.63;;;25.50;;
24084;SDS011;12268;52.110;5.548;2023-05-07T15:52:28;36.85;;;25.83;;
24084;SDS011;12268;52.110;5.548;2023-05-07T15:54:54;38.20;;;25.65;;
24084;SDS011;12268;52.110;5.548;2023-05-07T15:57:21;41.35;;;26.08;;
24084;SDS011;12268;52.110;5.548;2023-05-07T15:59:47;17.80;;;12.50;;
24084;SDS011;12268;52.110;5.548;2023-05-07T16:02:12;12.30;;;9.00;;
24084;SDS011;12268;52.110;5.548;2023-05-07T16:04:38;14.65;;;9.30;;
24084;SDS011;12268;52.110;5.548;2023-05-07T16:07:04;11.13;;;8.90;;
24084;SDS011;12268;52.110;5.548;2023-05-07T16:09:29;19.77;;;9.65;;
24084;SDS011;12268;52.110;5.548;2023-05-07T16:11:55;20.63;;;10.20;;
24084;SDS011;12268;52.110;5.548;2023-05-07T16:14:20;14.95;;;9.77;;
24084;SDS011;12268;52.110;5.548;2023-05-07T16:16:46;17.23;;;9.77;;
24084;SDS011;12268;52.110;5.548;2023-05-07T16:19:12;15.00;;;9.73;;
24084;SDS011;12268;52.110;5.548;2023-05-07T16:21:38;14.98;;;9.35;;
24084;SDS011;12268;52.110;5.548;2023-05-07T16:24:04;10.90;;;8.88;;
24084;SDS011;12268;52.110;5.548;2023-05-07T16:26:29;12.73;;;7.95;;
24084;SDS011;12268;52.110;5.548;2023-05-07T16:28:55;12.80;;;7.40;;
24084;SDS011;12268;52.110;5.548;2023-05-07T16:31:21;13.00;;;8.50;;
24084;SDS011;12268;52.110;5.548;2023-05-07T16:33:46;12.05;;;8.18;;
24084;SDS011;12268;52.110;5.548;2023-05-07T16:36:12;18.42;;;9.27;;
24084;SDS011;12268;52.110;5.548;2023-05-07T16:38:38;11.13;;;8.65;;
24084;SDS011;12268;52.110;5.548;2023-05-07T16:41:04;12.07;;;7.30;;
24084;SDS011;12268;52.110;5.548;2023-05-07T16:43:30;10.63;;;6.97;;